createdAt,value
2024-02-08T00:00:13.117Z,9.33
2024-02-08T00:01:13.266Z,9.33
2024-02-08T00:02:14.121Z,9.35
2024-02-08T00:03:13.026Z,9.35
2024-02-08T00:04:13.073Z,9.32
2024-02-08T00:05:13.073Z,9.36
2024-02-08T00:06:13.062Z,9.36
2024-02-08T00:07:12.999Z,9.36
2024-02-08T00:08:13.736Z,9.36
2024-02-08T00:09:12.942Z,9.39
2024-02-08T00:10:13.006Z,9.36
2024-02-08T00:11:12.976Z,9.38
2024-02-08T00:12:13.105Z,9.38
2024-02-08T00:13:12.905Z,9.38
2024-02-08T00:14:12.941Z,9.38
2024-02-08T00:15:12.874Z,9.36
2024-02-08T00:16:12.905Z,9.38
2024-02-08T00:17:12.920Z,9.38
2024-02-08T00:18:12.955Z,9.40
2024-02-08T00:19:12.879Z,9.39
2024-02-08T00:20:12.909Z,9.39
2024-02-08T00:21:12.808Z,9.40
2024-02-08T00:22:12.782Z,9.39
2024-02-08T00:23:12.853Z,9.40
2024-02-08T00:24:12.771Z,9.40
2024-02-08T00:25:12.767Z,9.40
2024-02-08T00:26:12.784Z,9.42
2024-02-08T00:27:12.761Z,9.42
2024-02-08T00:28:12.938Z,9.40
2024-02-08T00:29:12.827Z,9.43
2024-02-08T00:30:12.675Z,9.43
2024-02-08T00:31:12.689Z,9.46
2024-02-08T00:32:12.677Z,9.47
2024-02-08T00:33:12.707Z,9.47
2024-02-08T00:34:12.684Z,9.47
2024-02-08T00:35:12.741Z,9.47
2024-02-08T00:36:12.598Z,9.48
2024-02-08T00:37:12.596Z,9.48
2024-02-08T00:38:12.747Z,9.51
2024-02-08T00:39:12.589Z,9.51
2024-02-08T00:40:12.565Z,9.51
2024-02-08T00:41:12.715Z,9.50
2024-02-08T00:42:12.631Z,9.51
2024-02-08T00:43:12.540Z,9.53
2024-02-08T00:44:12.614Z,9.54
2024-02-08T00:45:12.527Z,9.51
2024-02-08T00:46:12.466Z,9.53
2024-02-08T00:47:12.775Z,9.51
2024-02-08T00:48:12.487Z,9.53
2024-02-08T00:49:12.508Z,9.54
2024-02-08T00:50:12.640Z,9.54
2024-02-08T00:51:12.426Z,9.54
2024-02-08T00:52:12.380Z,9.54
2024-02-08T00:53:12.406Z,9.56
2024-02-08T00:54:12.359Z,9.56
2024-02-08T00:55:12.410Z,9.56
2024-02-08T00:56:12.415Z,9.57
2024-02-08T00:57:12.358Z,9.58
2024-02-08T00:58:12.378Z,9.58
2024-02-08T00:59:12.374Z,9.60
2024-02-08T01:00:12.317Z,9.58
2024-02-08T01:01:12.406Z,9.58
2024-02-08T01:02:12.393Z,9.60
2024-02-08T01:03:12.451Z,9.60
2024-02-08T01:04:12.537Z,9.60
2024-02-08T01:05:12.385Z,9.61
2024-02-08T01:06:12.227Z,9.61
2024-02-08T01:07:12.237Z,9.61
2024-02-08T01:08:12.174Z,9.61
2024-02-08T01:09:12.185Z,9.61
2024-02-08T01:10:12.164Z,9.61
2024-02-08T01:11:12.207Z,9.61
2024-02-08T01:12:12.114Z,9.64
2024-02-08T01:13:12.181Z,9.64
2024-02-08T01:14:12.140Z,9.65
2024-02-08T01:15:12.101Z,9.64
2024-02-08T01:16:12.078Z,9.64
2024-02-08T01:17:12.135Z,9.64
2024-02-08T01:18:12.204Z,9.64
2024-02-08T01:19:12.073Z,9.64
2024-02-08T01:20:12.032Z,9.64
2024-02-08T01:21:12.091Z,9.65
2024-02-08T01:22:11.984Z,9.65
2024-02-08T01:23:12.118Z,9.66
2024-02-08T01:24:11.968Z,9.65
2024-02-08T01:25:11.947Z,9.64
2024-02-08T01:26:12.036Z,9.65
2024-02-08T01:27:11.984Z,9.64
2024-02-08T01:28:11.916Z,9.64
2024-02-08T01:29:11.965Z,9.64
2024-02-08T01:30:11.876Z,9.65
2024-02-08T01:31:11.897Z,9.64
2024-02-08T01:32:11.885Z,9.65
2024-02-08T01:33:11.916Z,9.65
2024-02-08T01:34:11.997Z,9.65
2024-02-08T01:35:12.062Z,9.66
2024-02-08T01:36:11.870Z,9.65
2024-02-08T01:37:11.815Z,9.65
2024-02-08T01:38:11.826Z,9.66
2024-02-08T01:39:11.828Z,9.65
2024-02-08T01:40:11.748Z,9.66
2024-02-08T01:41:11.833Z,9.65
2024-02-08T01:42:11.740Z,9.66
2024-02-08T01:43:11.770Z,9.66
2024-02-08T01:44:11.712Z,9.66
2024-02-08T01:45:11.688Z,9.66
2024-02-08T01:46:11.680Z,9.68
2024-02-08T01:47:11.748Z,9.68
2024-02-08T01:48:12.374Z,9.69
2024-02-08T01:49:11.684Z,9.71
2024-02-08T01:50:11.667Z,9.74
2024-02-08T01:51:11.639Z,9.72
2024-02-08T01:52:11.621Z,9.72
2024-02-08T01:53:11.654Z,9.72
2024-02-08T01:54:11.586Z,9.74
2024-02-08T01:55:11.565Z,9.74
2024-02-08T01:56:11.621Z,9.75
2024-02-08T01:57:11.573Z,9.76
2024-02-08T01:58:11.549Z,9.75
2024-02-08T01:59:11.583Z,9.76
2024-02-08T02:00:11.519Z,9.79
2024-02-08T02:01:11.522Z,9.78
2024-02-08T02:02:11.509Z,9.78
2024-02-08T02:03:11.454Z,9.79
2024-02-08T02:04:11.474Z,9.81
2024-02-08T02:05:11.556Z,9.79
2024-02-08T02:06:11.439Z,9.79
2024-02-08T02:07:11.400Z,9.81
2024-02-08T02:08:11.502Z,9.78
2024-02-08T02:09:11.361Z,9.81
2024-02-08T02:10:11.424Z,9.79
2024-02-08T02:11:11.446Z,9.81
2024-02-08T02:12:11.368Z,9.81
2024-02-08T02:13:11.296Z,9.81
2024-02-08T02:14:11.361Z,9.84
2024-02-08T02:15:11.313Z,9.84
2024-02-08T02:16:11.285Z,9.84
2024-02-08T02:17:11.299Z,9.83
2024-02-08T02:18:11.822Z,9.83
2024-02-08T02:19:11.293Z,9.83
2024-02-08T02:20:11.304Z,9.83
2024-02-08T02:21:11.219Z,9.84
2024-02-08T02:22:11.242Z,9.84
2024-02-08T02:23:11.328Z,9.84
2024-02-08T02:24:11.173Z,9.84
2024-02-08T02:25:11.187Z,9.86
2024-02-08T02:26:11.218Z,9.87
2024-02-08T02:27:11.180Z,9.87
2024-02-08T02:28:11.235Z,9.89
2024-02-08T02:29:11.167Z,9.90
2024-02-08T02:30:11.142Z,9.91
2024-02-08T02:31:11.078Z,9.93
2024-02-08T02:32:11.076Z,9.94
2024-02-08T02:33:11.106Z,9.96
2024-02-08T02:34:11.103Z,9.97
2024-02-08T02:35:11.121Z,10.01
2024-02-08T02:36:11.059Z,10.01
2024-02-08T02:37:11.001Z,9.99
2024-02-08T02:38:11.056Z,9.99
2024-02-08T02:39:10.980Z,10.01
2024-02-08T02:40:10.992Z,10.02
2024-02-08T02:41:10.979Z,10.01
2024-02-08T02:42:11.007Z,10.01
2024-02-08T02:43:11.398Z,10.02
2024-02-08T02:44:10.983Z,10.01
2024-02-08T02:45:10.894Z,10.02
2024-02-08T02:46:10.936Z,10.01
2024-02-08T02:47:10.929Z,10.01
2024-02-08T02:48:10.993Z,10.01
2024-02-08T02:49:10.904Z,10.01
2024-02-08T02:50:10.963Z,9.99
2024-02-08T02:51:10.841Z,9.99
2024-02-08T02:52:10.853Z,10.01
2024-02-08T02:53:10.939Z,10.02
2024-02-08T02:54:10.825Z,10.02
2024-02-08T02:55:10.766Z,10.02
2024-02-08T02:56:11.585Z,10.02
2024-02-08T02:57:10.725Z,10.04
2024-02-08T02:58:10.767Z,10.04
2024-02-08T02:59:10.737Z,10.04
2024-02-08T03:00:10.711Z,10.05
2024-02-08T03:01:10.701Z,10.05
2024-02-08T03:02:10.741Z,10.05
2024-02-08T03:03:10.675Z,10.05
2024-02-08T03:04:10.691Z,10.07
2024-02-08T03:05:10.703Z,10.05
2024-02-08T03:06:10.624Z,10.07
2024-02-08T03:07:10.644Z,10.07
2024-02-08T03:08:10.661Z,10.07
2024-02-08T03:09:10.606Z,10.05
2024-02-08T03:10:10.585Z,10.05
2024-02-08T03:11:10.552Z,10.05
2024-02-08T03:12:10.544Z,10.07
2024-02-08T03:13:10.509Z,10.05
2024-02-08T03:14:10.581Z,10.02
2024-02-08T03:15:10.519Z,10.01
2024-02-08T03:16:10.501Z,9.99
2024-02-08T03:17:10.536Z,9.99
2024-02-08T03:18:10.486Z,9.99
2024-02-08T03:19:10.492Z,9.99
2024-02-08T03:20:10.503Z,9.96
2024-02-08T03:21:10.421Z,9.94
2024-02-08T03:22:10.449Z,9.93
2024-02-08T03:23:10.455Z,9.93
2024-02-08T03:24:10.395Z,9.93
2024-02-08T03:25:10.349Z,9.93
2024-02-08T03:26:10.410Z,9.91
2024-02-08T03:27:10.335Z,9.91
2024-02-08T03:28:10.332Z,9.91
2024-02-08T03:29:10.345Z,9.90
2024-02-08T03:30:10.356Z,9.90
2024-02-08T03:31:10.284Z,9.90
2024-02-08T03:32:10.355Z,9.90
2024-02-08T03:33:10.276Z,9.90
2024-02-08T03:34:10.356Z,9.90
2024-02-08T03:35:10.290Z,9.90
2024-02-08T03:36:10.257Z,9.90
2024-02-08T03:37:10.190Z,9.89
2024-02-08T03:38:10.405Z,9.90
2024-02-08T03:39:10.154Z,9.90
2024-02-08T03:40:10.200Z,9.89
2024-02-08T03:41:10.260Z,9.89
2024-02-08T03:42:10.174Z,9.90
2024-02-08T03:43:10.106Z,9.90
2024-02-08T03:44:10.204Z,9.89
2024-02-08T03:45:10.114Z,9.86
2024-02-08T03:46:10.115Z,9.87
2024-02-08T03:47:10.812Z,9.84
2024-02-08T03:48:10.138Z,9.84
2024-02-08T03:49:10.144Z,9.84
2024-02-08T03:50:10.247Z,9.83
2024-02-08T03:51:10.012Z,9.81
2024-02-08T03:52:10.356Z,9.81
2024-02-08T03:53:10.017Z,9.83
2024-02-08T03:54:10.000Z,9.83
2024-02-08T03:55:09.981Z,9.83
2024-02-08T03:56:10.045Z,9.83
2024-02-08T03:57:09.964Z,9.83
2024-02-08T03:58:09.951Z,9.81
2024-02-08T03:59:09.991Z,9.81
2024-02-08T04:00:09.925Z,9.83
2024-02-08T04:01:10.089Z,9.83
2024-02-08T04:02:09.982Z,9.83
2024-02-08T04:03:09.847Z,9.83
2024-02-08T04:04:09.918Z,9.83
2024-02-08T04:05:09.879Z,9.83
2024-02-08T04:06:09.853Z,9.83
2024-02-08T04:07:09.796Z,9.83
2024-02-08T04:08:09.963Z,9.81
2024-02-08T04:09:10.071Z,9.81
2024-02-08T04:10:09.778Z,9.81
2024-02-08T04:11:09.831Z,9.81
2024-02-08T04:12:09.764Z,9.81
2024-02-08T04:13:09.738Z,9.81
2024-02-08T04:14:09.798Z,9.83
2024-02-08T04:15:09.692Z,9.81
2024-02-08T04:16:09.748Z,9.81
2024-02-08T04:17:09.693Z,9.83
2024-02-08T04:18:09.766Z,9.81
2024-02-08T04:19:09.658Z,9.83
2024-02-08T04:20:09.708Z,9.81
2024-02-08T04:21:09.630Z,9.83
2024-02-08T04:22:09.658Z,9.83
2024-02-08T04:23:09.802Z,9.83
2024-02-08T04:24:09.626Z,9.84
2024-02-08T04:25:09.583Z,9.83
2024-02-08T04:26:09.704Z,9.84
2024-02-08T04:27:09.570Z,9.84
2024-02-08T04:28:09.551Z,9.84
2024-02-08T04:29:09.700Z,9.84
2024-02-08T04:30:09.546Z,9.86
2024-02-08T04:31:09.508Z,9.84
2024-02-08T04:32:09.752Z,9.86
2024-02-08T04:33:09.557Z,9.84
2024-02-08T04:34:09.561Z,9.86
2024-02-08T04:35:09.547Z,9.84
2024-02-08T04:36:09.472Z,9.86
2024-02-08T04:37:09.438Z,9.84
2024-02-08T04:38:09.490Z,9.86
2024-02-08T04:39:09.373Z,9.87
2024-02-08T04:40:09.395Z,9.87
2024-02-08T04:41:09.412Z,9.87
2024-02-08T04:42:09.394Z,9.87
2024-02-08T04:43:09.338Z,9.89
2024-02-08T04:44:09.597Z,9.87
2024-02-08T04:45:09.294Z,9.87
2024-02-08T04:46:09.383Z,9.87
2024-02-08T04:47:09.426Z,9.87
2024-02-08T04:48:09.352Z,9.89
2024-02-08T04:49:09.356Z,9.90
2024-02-08T04:50:09.330Z,9.89
2024-02-08T04:51:09.223Z,9.89
2024-02-08T04:52:11.167Z,9.89
2024-02-08T04:53:09.260Z,9.89
2024-02-08T04:54:09.213Z,9.90
2024-02-08T04:55:09.149Z,9.90
2024-02-08T04:56:09.284Z,9.90
2024-02-08T04:57:09.144Z,9.89
2024-02-08T04:58:35.566Z,9.90
2024-02-08T04:59:21.456Z,9.90
2024-02-08T05:00:09.139Z,9.91
2024-02-08T05:01:09.103Z,9.90
2024-02-08T05:02:09.085Z,9.89
2024-02-08T05:03:09.045Z,9.90
2024-02-08T05:04:09.230Z,9.90
2024-02-08T05:05:09.143Z,9.89
2024-02-08T05:06:09.073Z,9.89
2024-02-08T05:07:09.080Z,9.87
2024-02-08T05:08:09.038Z,9.89
2024-02-08T05:09:08.966Z,9.89
2024-02-08T05:10:09.061Z,9.90
2024-02-08T05:11:09.016Z,9.90
2024-02-08T05:12:08.945Z,9.87
2024-02-08T05:13:08.994Z,9.89
2024-02-08T05:14:08.926Z,9.87
2024-02-08T05:15:08.931Z,9.87
2024-02-08T05:16:08.906Z,9.89
2024-02-08T05:17:08.912Z,9.89
2024-02-08T05:18:08.944Z,9.89
2024-02-08T05:19:09.009Z,9.89
2024-02-08T05:20:08.937Z,9.90
2024-02-08T05:21:08.839Z,9.90
2024-02-08T05:22:08.863Z,9.87
2024-02-08T05:23:08.798Z,9.87
2024-02-08T05:24:08.793Z,9.89
2024-02-08T05:25:08.788Z,9.89
2024-02-08T05:26:08.778Z,9.89
2024-02-08T05:27:08.797Z,9.89
2024-02-08T05:28:08.787Z,9.89
2024-02-08T05:29:08.725Z,9.87
2024-02-08T05:30:08.803Z,9.89
2024-02-08T05:31:08.723Z,9.90
2024-02-08T05:32:08.717Z,9.89
2024-02-08T05:33:08.726Z,9.90
2024-02-08T05:34:16.434Z,9.89
2024-02-08T05:35:08.805Z,9.90
2024-02-08T05:36:08.642Z,9.89
2024-02-08T05:37:08.708Z,9.87
2024-02-08T05:38:08.608Z,9.89
2024-02-08T05:39:08.615Z,9.90
2024-02-08T05:40:08.625Z,9.89
2024-02-08T05:41:08.550Z,9.90
2024-02-08T05:42:08.569Z,9.90
2024-02-08T05:43:08.581Z,9.90
2024-02-08T05:44:08.544Z,9.90
2024-02-08T05:45:08.500Z,9.90
2024-02-08T05:46:08.592Z,9.91
2024-02-08T05:47:10.367Z,9.93
2024-02-08T05:48:08.591Z,9.90
2024-02-08T05:49:08.556Z,9.89
2024-02-08T05:50:08.575Z,9.91
2024-02-08T05:51:08.420Z,9.90
2024-02-08T05:52:09.330Z,9.91
2024-02-08T05:53:08.524Z,9.91
2024-02-08T05:54:08.399Z,9.90
2024-02-08T05:55:08.359Z,9.90
2024-02-08T05:56:08.373Z,9.91
2024-02-08T05:57:08.929Z,9.91
2024-02-08T05:58:08.591Z,9.91
2024-02-08T05:59:08.338Z,9.91
2024-02-08T06:00:08.336Z,9.91
2024-02-08T06:01:08.337Z,9.91
2024-02-08T06:02:08.432Z,9.93
2024-02-08T06:03:08.292Z,9.90
2024-02-08T06:04:08.404Z,9.90
2024-02-08T06:05:08.306Z,9.90
2024-02-08T06:06:08.542Z,9.90
2024-02-08T06:07:08.287Z,9.91
2024-02-08T06:08:08.268Z,9.91
2024-02-08T06:09:08.235Z,9.91
2024-02-08T06:10:08.233Z,9.90
2024-02-08T06:11:08.196Z,9.90
2024-02-08T06:12:09.415Z,9.89
2024-02-08T06:13:08.192Z,9.90
2024-02-08T06:14:08.139Z,9.91
2024-02-08T06:15:08.130Z,9.90
2024-02-08T06:16:08.118Z,9.90
2024-02-08T06:17:08.118Z,9.90
2024-02-08T06:18:08.255Z,9.90
2024-02-08T06:19:08.189Z,9.90
2024-02-08T06:20:08.093Z,9.91
2024-02-08T06:21:08.048Z,9.91
2024-02-08T06:22:08.069Z,9.90
2024-02-08T06:23:08.025Z,9.91
2024-02-08T06:24:07.971Z,9.90
2024-02-08T06:25:08.093Z,9.91
2024-02-08T06:26:07.969Z,9.91
2024-02-08T06:27:07.956Z,9.91
2024-02-08T06:28:07.976Z,9.91
2024-02-08T06:29:07.953Z,9.91
2024-02-08T06:30:07.961Z,9.94
2024-02-08T06:31:08.088Z,9.94
2024-02-08T06:32:07.903Z,9.94
2024-02-08T06:33:07.950Z,9.96
2024-02-08T06:34:08.046Z,9.96
2024-02-08T06:35:08.252Z,9.96
2024-02-08T06:36:07.823Z,9.97
2024-02-08T06:37:07.858Z,9.96
2024-02-08T06:38:07.790Z,9.97
2024-02-08T06:39:07.833Z,9.97
2024-02-08T06:40:07.806Z,9.97
2024-02-08T06:41:07.789Z,9.97
2024-02-08T06:42:07.764Z,9.97
2024-02-08T06:43:07.871Z,9.99
2024-02-08T06:44:07.719Z,9.99
2024-02-08T06:45:07.778Z,9.99
2024-02-08T06:46:07.802Z,9.99
2024-02-08T06:47:07.706Z,10.02
2024-02-08T06:48:07.755Z,9.99
2024-02-08T06:49:07.754Z,9.99
2024-02-08T06:50:07.726Z,10.02
2024-02-08T06:51:07.650Z,10.04
2024-02-08T06:52:07.669Z,10.04
2024-02-08T06:53:07.615Z,10.04
2024-02-08T06:54:07.587Z,10.02
2024-02-08T06:55:07.636Z,10.05
2024-02-08T06:56:07.587Z,10.07
2024-02-08T06:57:07.560Z,10.07
2024-02-08T06:58:07.670Z,10.07
2024-02-08T06:59:07.561Z,10.05
2024-02-08T07:00:07.523Z,10.07
2024-02-08T07:01:07.558Z,10.07
2024-02-08T07:02:07.612Z,10.05
2024-02-08T07:03:07.493Z,10.07
2024-02-08T07:04:07.557Z,10.07
2024-02-08T07:05:10.423Z,10.07
2024-02-08T07:06:07.443Z,10.07
2024-02-08T07:07:07.507Z,10.08
2024-02-08T07:08:07.460Z,10.07
2024-02-08T07:09:07.402Z,10.08
2024-02-08T07:10:07.462Z,10.08
2024-02-08T07:11:07.411Z,10.08
2024-02-08T07:12:07.392Z,10.08
2024-02-08T07:13:07.437Z,10.09
2024-02-08T07:14:07.309Z,10.11
2024-02-08T07:15:07.375Z,10.11
2024-02-08T07:16:07.390Z,10.12
2024-02-08T07:17:07.314Z,10.11
2024-02-08T07:18:08.868Z,10.12
2024-02-08T07:19:08.737Z,10.12
2024-02-08T07:20:07.418Z,10.12
2024-02-08T07:21:07.260Z,10.14
2024-02-08T07:22:07.289Z,10.15
2024-02-08T07:23:07.210Z,10.15
2024-02-08T07:24:07.223Z,10.14
2024-02-08T07:25:07.273Z,10.14
2024-02-08T07:26:07.147Z,10.15
2024-02-08T07:27:07.184Z,10.15
2024-02-08T07:28:07.239Z,10.14
2024-02-08T07:29:07.186Z,10.14
2024-02-08T07:30:07.110Z,10.14
2024-02-08T07:31:07.140Z,10.15
2024-02-08T07:32:07.066Z,10.17
2024-02-08T07:33:07.237Z,10.15
2024-02-08T07:34:07.132Z,10.15
2024-02-08T07:35:07.178Z,10.15
2024-02-08T07:36:07.025Z,10.14
2024-02-08T07:37:07.092Z,10.17
2024-02-08T07:38:07.021Z,10.17
2024-02-08T07:39:07.017Z,10.17
2024-02-08T07:40:07.017Z,10.17
2024-02-08T07:41:06.975Z,10.17
2024-02-08T07:42:06.978Z,10.17
2024-02-08T07:43:07.049Z,10.17
2024-02-08T07:44:06.913Z,10.18
2024-02-08T07:45:06.924Z,10.17
2024-02-08T07:46:06.969Z,10.18
2024-02-08T07:47:07.311Z,10.17
2024-02-08T07:48:06.952Z,10.18
2024-02-08T07:49:07.564Z,10.18
2024-02-08T07:50:07.066Z,10.18
2024-02-08T07:51:06.913Z,10.18
2024-02-08T07:52:06.941Z,10.17
2024-02-08T07:53:06.827Z,10.18
2024-02-08T07:54:06.801Z,10.18
2024-02-08T07:55:06.831Z,10.20
2024-02-08T07:56:06.761Z,10.20
2024-02-08T07:57:06.782Z,10.22
2024-02-08T07:58:06.732Z,10.23
2024-02-08T07:59:06.876Z,10.25
2024-02-08T08:00:06.731Z,10.25
2024-02-08T08:01:06.803Z,10.27
2024-02-08T08:02:06.742Z,10.29
2024-02-08T08:03:06.697Z,10.30
2024-02-08T08:04:06.861Z,10.30
2024-02-08T08:05:06.866Z,10.30
2024-02-08T08:06:06.718Z,10.33
2024-02-08T08:07:06.689Z,10.34
2024-02-08T08:08:06.571Z,10.36
2024-02-08T08:09:06.616Z,10.34
2024-02-08T08:10:06.671Z,10.36
2024-02-08T08:11:06.829Z,10.40
2024-02-08T08:12:06.559Z,10.41
2024-02-08T08:13:06.589Z,10.42
2024-02-08T08:14:06.526Z,10.44
2024-02-08T08:15:06.551Z,10.47
2024-02-08T08:16:06.533Z,10.51
2024-02-08T08:17:06.490Z,10.51
2024-02-08T08:18:06.507Z,10.53
2024-02-08T08:19:06.584Z,10.52
2024-02-08T08:20:06.706Z,10.53
2024-02-08T08:21:06.478Z,10.52
2024-02-08T08:22:06.436Z,10.52
2024-02-08T08:23:06.436Z,10.53
2024-02-08T08:24:06.425Z,10.53
2024-02-08T08:25:07.880Z,10.56
2024-02-08T08:26:06.349Z,10.55
2024-02-08T08:27:06.358Z,10.53
2024-02-08T08:28:06.410Z,10.55
2024-02-08T08:29:06.363Z,10.55
2024-02-08T08:30:06.302Z,10.53
2024-02-08T08:31:06.347Z,10.53
2024-02-08T08:32:06.272Z,10.55
2024-02-08T08:33:06.447Z,10.56
2024-02-08T08:34:06.470Z,10.56
2024-02-08T08:35:06.454Z,10.56
2024-02-08T08:36:06.321Z,10.56
2024-02-08T08:37:06.294Z,10.60
2024-02-08T08:38:06.256Z,10.59
2024-02-08T08:39:06.241Z,10.60
2024-02-08T08:40:06.410Z,10.61
2024-02-08T08:41:06.267Z,10.61
2024-02-08T08:42:06.133Z,10.61
2024-02-08T08:43:06.258Z,10.61
2024-02-08T08:44:06.119Z,10.61
2024-02-08T08:45:06.409Z,10.63
2024-02-08T08:46:06.252Z,10.64
2024-02-08T08:47:06.118Z,10.66
2024-02-08T08:48:06.168Z,10.66
2024-02-08T08:49:06.377Z,10.66
2024-02-08T08:50:06.079Z,10.66
2024-02-08T08:51:06.114Z,10.66
2024-02-08T08:52:06.176Z,10.66
2024-02-08T08:53:06.013Z,10.66
2024-02-08T08:54:06.032Z,10.66
2024-02-08T08:55:06.062Z,10.67
2024-02-08T08:56:05.995Z,10.68
2024-02-08T08:57:06.007Z,10.70
2024-02-08T08:58:06.013Z,10.70
2024-02-08T08:59:05.973Z,10.70
2024-02-08T09:00:05.903Z,10.73
2024-02-08T09:01:05.998Z,10.74
2024-02-08T09:02:06.037Z,10.76
2024-02-08T09:03:06.166Z,10.78
2024-02-08T09:04:05.967Z,10.78
2024-02-08T09:05:05.992Z,10.79
2024-02-08T09:06:05.831Z,10.78
2024-02-08T09:07:05.969Z,10.78
2024-02-08T09:08:05.938Z,10.79
2024-02-08T09:09:05.819Z,10.78
2024-02-08T09:10:06.039Z,10.79
2024-02-08T09:11:05.798Z,10.78
2024-02-08T09:12:05.734Z,10.79
2024-02-08T09:13:05.751Z,10.78
2024-02-08T09:14:05.759Z,10.78
2024-02-08T09:15:05.737Z,10.76
2024-02-08T09:16:05.807Z,10.74
2024-02-08T09:17:24.166Z,10.74
2024-02-08T09:18:05.744Z,10.74
2024-02-08T09:19:06.304Z,10.74
2024-02-08T09:20:05.757Z,10.76
2024-02-08T09:21:05.669Z,10.76
2024-02-08T09:22:05.694Z,10.76
2024-02-08T09:23:05.641Z,10.78
2024-02-08T09:24:05.676Z,10.78
2024-02-08T09:25:05.634Z,10.78
2024-02-08T09:26:05.568Z,10.76
2024-02-08T09:27:05.576Z,10.78
2024-02-08T09:28:05.560Z,10.78
2024-02-08T09:29:05.565Z,10.78
2024-02-08T09:30:05.557Z,10.78
2024-02-08T09:31:05.578Z,10.78
2024-02-08T09:32:05.486Z,10.79
2024-02-08T09:43:37.119Z,10.85
2024-02-08T09:44:38.053Z,10.85
2024-02-08T09:45:38.019Z,10.84
2024-02-08T09:46:38.126Z,10.84
2024-02-08T09:47:38.004Z,10.84
2024-02-08T09:48:38.001Z,10.86
2024-02-08T09:49:38.116Z,10.85
2024-02-08T09:50:38.884Z,10.85
2024-02-08T09:51:37.979Z,10.85
2024-02-08T09:52:37.953Z,10.85
2024-02-08T09:53:37.885Z,10.84
2024-02-08T09:54:37.899Z,10.84
2024-02-08T09:55:37.909Z,10.85
2024-02-08T09:56:37.858Z,10.84
2024-02-08T09:57:37.947Z,10.84
2024-02-08T09:58:42.670Z,10.85
2024-02-08T09:59:37.797Z,10.85
2024-02-08T10:00:37.831Z,10.86
2024-02-08T10:01:37.905Z,10.85
2024-02-08T10:02:37.813Z,10.85
2024-02-08T10:03:37.807Z,10.85
2024-02-08T10:04:37.911Z,10.85
2024-02-08T10:05:37.732Z,10.85
2024-02-08T10:06:37.866Z,10.85
2024-02-08T10:07:37.907Z,10.86
2024-02-08T10:08:37.714Z,10.86
2024-02-08T10:09:37.696Z,10.88
2024-02-08T10:10:37.710Z,10.88
2024-02-08T10:11:37.661Z,10.89
2024-02-08T10:12:37.647Z,10.88
2024-02-08T10:13:37.648Z,10.89
2024-02-08T10:14:37.642Z,10.89
2024-02-08T10:15:37.604Z,10.89
2024-02-08T10:16:37.648Z,10.92
2024-02-08T10:17:38.217Z,10.92
2024-02-08T10:18:37.611Z,10.94
2024-02-08T10:19:37.743Z,10.92
2024-02-08T10:20:37.553Z,10.96
2024-02-08T10:21:38.165Z,10.94
2024-02-08T10:22:37.561Z,10.96
2024-02-08T10:23:37.553Z,10.96
2024-02-08T10:24:37.543Z,10.94
2024-02-08T10:25:37.498Z,10.96
2024-02-08T10:26:37.446Z,10.96
2024-02-08T10:27:37.460Z,10.96
2024-02-08T10:28:37.457Z,10.99
2024-02-08T10:29:37.406Z,10.99
2024-02-08T10:30:39.271Z,11.00
2024-02-08T10:31:37.400Z,11.00
2024-02-08T10:32:37.448Z,11.02
2024-02-08T10:33:37.955Z,11.02
2024-02-08T10:34:37.486Z,11.03
2024-02-08T10:35:37.321Z,11.07
2024-02-08T10:36:37.345Z,11.07
2024-02-08T10:37:37.383Z,11.06
2024-02-08T10:38:37.333Z,11.04
2024-02-08T10:39:37.282Z,11.07
2024-02-08T10:40:37.347Z,11.07
2024-02-08T10:41:37.410Z,11.09
2024-02-08T10:42:37.285Z,11.11
2024-02-08T10:43:37.305Z,11.14
2024-02-08T10:44:37.216Z,11.15
2024-02-08T10:45:37.185Z,11.14
2024-02-08T10:46:37.220Z,11.14
2024-02-08T10:47:41.668Z,11.15
2024-02-08T10:48:37.336Z,11.15
2024-02-08T10:49:37.237Z,11.17
2024-02-08T10:50:37.232Z,11.18
2024-02-08T10:51:37.141Z,11.19
2024-02-08T10:52:37.234Z,11.19
2024-02-08T10:53:37.464Z,11.22
2024-02-08T10:54:39.359Z,11.22
2024-02-08T10:55:37.154Z,11.22
2024-02-08T10:56:37.070Z,11.22
2024-02-08T10:57:37.052Z,11.24
2024-02-08T10:58:37.113Z,11.27
2024-02-08T10:59:37.174Z,11.27
2024-02-08T11:00:39.911Z,11.28
2024-02-08T11:01:37.072Z,11.28
2024-02-08T11:02:37.119Z,11.28
2024-02-08T11:03:36.973Z,11.29
2024-02-08T11:04:37.070Z,11.32
2024-02-08T11:05:36.971Z,11.32
2024-02-08T11:06:36.999Z,11.32
2024-02-08T11:07:36.931Z,11.32
2024-02-08T11:08:36.931Z,11.35
2024-02-08T11:09:36.892Z,11.36
2024-02-08T11:10:36.974Z,11.36
2024-02-08T11:11:36.878Z,11.37
2024-02-08T11:12:36.855Z,11.36
2024-02-08T11:13:36.980Z,11.37
2024-02-08T11:14:36.817Z,11.39
2024-02-08T11:15:36.839Z,11.39
2024-02-08T11:16:37.119Z,11.37
2024-02-08T11:17:36.822Z,11.39
2024-02-08T11:18:37.247Z,11.39
2024-02-08T11:19:36.850Z,11.39
2024-02-08T11:20:36.768Z,11.40
2024-02-08T11:21:36.716Z,11.42
2024-02-08T11:22:37.211Z,11.42
2024-02-08T11:23:36.703Z,11.43
2024-02-08T11:24:36.800Z,11.43
2024-02-08T11:25:36.737Z,11.42
2024-02-08T11:26:36.679Z,11.42
2024-02-08T11:27:36.668Z,11.43
2024-02-08T11:28:36.691Z,11.44
2024-02-08T11:29:36.653Z,11.47
2024-02-08T11:30:36.612Z,11.47
2024-02-08T11:31:36.702Z,11.51
2024-02-08T11:32:36.596Z,11.49
2024-02-08T11:33:36.599Z,11.51
2024-02-08T11:34:36.700Z,11.51
2024-02-08T11:35:36.529Z,11.54
2024-02-08T11:36:36.645Z,11.54
2024-02-08T11:37:36.634Z,11.54
2024-02-08T11:38:36.524Z,11.54
2024-02-08T11:39:36.465Z,11.55
2024-02-08T11:40:36.515Z,11.55
2024-02-08T11:41:36.435Z,11.55
2024-02-08T11:42:36.497Z,11.55
2024-02-08T11:43:36.484Z,11.55
2024-02-08T11:44:36.417Z,11.57
2024-02-08T11:45:36.425Z,11.55
2024-02-08T11:46:36.536Z,11.54
2024-02-08T11:47:36.466Z,11.54
2024-02-08T11:48:36.496Z,11.55
2024-02-08T11:49:36.442Z,11.55
2024-02-08T11:50:36.402Z,11.57
2024-02-08T11:51:36.324Z,11.57
2024-02-08T11:52:36.453Z,11.55
2024-02-08T11:53:36.329Z,11.57
2024-02-08T11:54:36.310Z,11.57
2024-02-08T11:55:36.394Z,11.58
2024-02-08T11:56:36.269Z,11.57
2024-02-08T11:57:36.243Z,11.58
2024-02-08T11:58:36.319Z,11.60
2024-02-08T11:59:36.208Z,11.60
2024-02-08T12:00:36.203Z,11.62
2024-02-08T12:01:36.239Z,11.64
2024-02-08T12:02:36.176Z,11.67
2024-02-08T12:03:36.204Z,11.70
2024-02-08T12:04:36.386Z,11.73
2024-02-08T12:05:36.351Z,11.80
2024-02-08T12:06:36.208Z,11.83
2024-02-08T12:07:36.195Z,11.88
2024-02-08T12:08:40.710Z,11.91
2024-02-08T12:09:36.143Z,11.96
2024-02-08T12:10:36.203Z,11.99
2024-02-08T12:11:36.092Z,12.04
2024-02-08T12:12:36.077Z,12.02
2024-02-08T12:13:36.176Z,12.05
2024-02-08T12:14:36.028Z,12.07
2024-02-08T12:15:36.109Z,12.10
2024-02-08T12:16:36.044Z,12.09
2024-02-08T12:17:36.030Z,12.09
2024-02-08T12:18:36.020Z,12.09
2024-02-08T12:19:36.142Z,12.10
2024-02-08T12:20:35.948Z,12.09
2024-02-08T12:21:35.930Z,12.09
2024-02-08T12:22:35.921Z,12.09
2024-02-08T12:23:35.997Z,12.10
2024-02-08T12:24:35.913Z,12.10
2024-02-08T12:25:36.098Z,12.10
2024-02-08T12:26:35.846Z,12.10
2024-02-08T12:27:35.870Z,12.12
2024-02-08T12:28:36.010Z,12.10
2024-02-08T12:29:35.852Z,12.10
2024-02-08T12:30:35.822Z,12.14
2024-02-08T12:31:36.076Z,12.13
2024-02-08T12:32:35.877Z,12.12
2024-02-08T12:33:35.967Z,12.13
2024-02-08T12:34:35.863Z,12.12
2024-02-08T12:35:35.807Z,12.16
2024-02-08T12:36:35.742Z,12.14
2024-02-08T12:37:35.808Z,12.14
2024-02-08T12:38:37.872Z,12.14
2024-02-08T12:39:35.689Z,12.13
2024-02-08T12:40:35.766Z,12.14
2024-02-08T12:41:35.707Z,12.16
2024-02-08T12:42:35.661Z,12.19
2024-02-08T12:43:35.757Z,12.21
2024-02-08T12:44:35.604Z,12.24
2024-02-08T12:45:35.627Z,12.28
2024-02-08T12:46:35.679Z,12.29
2024-02-08T12:47:35.625Z,12.31
2024-02-08T12:48:35.641Z,12.32
2024-02-08T12:49:35.881Z,12.34
2024-02-08T12:50:35.604Z,12.35
2024-02-08T12:51:35.547Z,12.35
2024-02-08T12:52:35.592Z,12.37
2024-02-08T12:53:35.557Z,12.37
2024-02-08T12:54:35.482Z,12.38
2024-02-08T12:55:35.583Z,12.38
2024-02-08T12:56:35.444Z,12.39
2024-02-08T12:57:35.474Z,12.42
2024-02-08T12:58:35.679Z,12.46
2024-02-08T12:59:35.485Z,12.49
2024-02-08T13:00:36.124Z,12.52
2024-02-08T13:01:38.377Z,12.52
2024-02-08T13:02:35.379Z,12.53
2024-02-08T13:03:35.449Z,12.54
2024-02-08T13:04:35.395Z,12.54
2024-02-08T13:05:35.431Z,12.57
2024-02-08T13:06:35.348Z,12.56
2024-02-08T13:07:37.574Z,12.57
2024-02-08T13:08:35.519Z,12.59
2024-02-08T13:09:35.318Z,12.59
2024-02-08T13:10:38.662Z,12.59
2024-02-08T13:11:35.319Z,12.60
2024-02-08T13:12:35.239Z,12.59
2024-02-08T13:13:35.303Z,12.59
2024-02-08T13:14:35.252Z,12.60